createdAt,value
2019-04-26T00:00:42.919Z,4.40
2019-04-26T00:03:28.094Z,2.70
2019-04-26T00:06:10.271Z,4.00
2019-04-26T00:08:52.698Z,5.57
2019-04-26T00:14:42.672Z,4.50
2019-04-26T00:17:42.759Z,2.40
2019-04-26T00:20:21.496Z,2.90
2019-04-26T00:23:10.591Z,3.87
2019-04-26T00:25:58.751Z,4.00
2019-04-26T00:28:46.502Z,4.23
2019-04-26T00:31:34.286Z,2.87
2019-04-26T00:34:22.050Z,3.37
2019-04-26T00:37:03.294Z,5.37
2019-04-26T00:39:43.916Z,3.43
2019-04-26T00:42:24.810Z,4.93
2019-04-26T00:45:05.639Z,6.70
2019-04-26T00:47:46.208Z,3.37
2019-04-26T00:50:27.195Z,3.87
2019-04-26T00:53:07.816Z,3.20
2019-04-26T00:55:48.720Z,4.13
2019-04-26T00:58:29.855Z,4.07
2019-04-26T01:00:58.516Z,4.13
2019-04-26T01:03:46.350Z,3.40
2019-04-26T01:09:42.627Z,4.07
2019-04-26T01:12:30.398Z,3.47
2019-04-26T01:15:19.981Z,3.80
2019-04-26T01:18:08.077Z,5.60
2019-04-26T01:21:17.187Z,2.63
2019-04-26T01:24:27.302Z,3.70
2019-04-26T01:27:37.154Z,3.20
2019-04-26T01:30:25.895Z,4.93
2019-04-26T01:33:13.877Z,5.57
2019-04-26T01:36:12.376Z,2.40
2019-04-26T01:39:12.234Z,5.93
2019-04-26T01:41:54.382Z,2.47
2019-04-26T01:44:54.044Z,3.13
2019-04-26T01:47:35.075Z,3.47
2019-04-26T01:50:15.895Z,2.30
2019-04-26T01:52:56.359Z,3.60
2019-04-26T01:55:37.152Z,2.60
2019-04-26T01:58:17.768Z,3.27
2019-04-26T02:03:52.994Z,4.87
2019-04-26T02:06:35.244Z,2.40
2019-04-26T02:09:16.529Z,3.10
2019-04-26T02:11:57.056Z,6.17
2019-04-26T02:14:37.750Z,4.10
2019-04-26T02:17:18.644Z,3.37
2019-04-26T02:19:59.424Z,2.03
2019-04-26T02:22:41.488Z,2.30
2019-04-26T02:25:21.749Z,4.30
2019-04-26T02:28:02.622Z,4.67
2019-04-26T02:30:43.438Z,2.33
2019-04-26T02:33:25.281Z,3.40
2019-04-26T02:36:06.718Z,3.67
2019-04-26T02:38:47.340Z,3.77
2019-04-26T02:41:29.945Z,2.30
2019-04-26T02:44:09.920Z,3.00
2019-04-26T02:46:54.939Z,2.20
2019-04-26T02:49:38.555Z,2.23
2019-04-26T02:52:19.840Z,2.40
2019-04-26T02:55:00.749Z,2.30
2019-04-26T02:57:41.658Z,2.73
2019-04-26T03:00:22.413Z,5.60
2019-04-26T03:03:03.114Z,4.83
2019-04-26T03:05:43.897Z,4.50
2019-04-26T03:08:24.620Z,5.60
2019-04-26T03:11:05.327Z,2.43
2019-04-26T03:13:47.657Z,3.87
2019-04-26T03:16:34.704Z,2.17
2019-04-26T03:19:16.629Z,2.63
2019-04-26T03:21:57.784Z,2.03
2019-04-26T03:24:40.252Z,5.60
2019-04-26T03:27:21.218Z,2.83
2019-04-26T03:30:18.315Z,2.57
2019-04-26T03:32:50.265Z,2.70
2019-04-26T03:35:56.603Z,2.27
2019-04-26T03:38:29.322Z,1.87
2019-04-26T03:41:12.260Z,2.20
2019-04-26T03:43:58.496Z,2.27
2019-04-26T03:47:06.997Z,4.40
2019-04-26T03:50:14.105Z,2.30
2019-04-26T03:53:22.605Z,3.63
2019-04-26T03:56:31.109Z,3.27
2019-04-26T03:59:40.916Z,4.20
2019-04-26T04:02:50.060Z,4.40
2019-04-26T04:05:58.564Z,3.80
2019-04-26T04:08:40.763Z,2.50
2019-04-26T04:11:22.176Z,5.33
2019-04-26T04:14:03.147Z,3.27
2019-04-26T04:16:48.442Z,3.53
2019-04-26T04:19:28.977Z,5.53
2019-04-26T04:22:09.528Z,3.10
2019-04-26T04:24:51.335Z,4.30
2019-04-26T04:27:31.968Z,4.50
2019-04-26T04:30:12.725Z,5.97
2019-04-26T04:32:53.744Z,4.63
2019-04-26T04:35:34.573Z,5.43
2019-04-26T04:38:15.395Z,5.47
2019-04-26T04:41:15.329Z,8.90
2019-04-26T04:47:22.372Z,5.97
2019-04-26T04:49:52.700Z,7.20
2019-04-26T04:52:59.970Z,8.70
2019-04-26T04:56:07.088Z,7.57
2019-04-26T04:59:14.180Z,7.60
2019-04-26T05:02:22.923Z,10.87
2019-04-26T05:05:31.458Z,9.17
2019-04-26T05:08:38.544Z,9.67
2019-04-26T05:11:19.476Z,13.07
2019-04-26T05:14:00.244Z,13.77
2019-04-26T05:16:45.024Z,11.07
2019-04-26T05:19:26.675Z,15.37
2019-04-26T05:22:07.798Z,14.13
2019-04-26T05:24:49.108Z,13.73
2019-04-26T05:27:34.226Z,13.97
2019-04-26T05:30:34.276Z,19.03
2019-04-26T05:33:15.277Z,13.70
2019-04-26T05:35:57.739Z,17.90
2019-04-26T05:38:38.771Z,16.63
2019-04-26T05:41:19.740Z,18.07
2019-04-26T05:44:05.241Z,16.60
2019-04-26T05:47:05.692Z,15.27
2019-04-26T05:49:47.501Z,14.77
2019-04-26T05:52:32.357Z,17.97
2019-04-26T05:55:14.821Z,15.33
2019-04-26T05:57:58.463Z,15.13
2019-04-26T06:00:43.981Z,14.77
2019-04-26T06:03:44.260Z,15.33
2019-04-26T06:09:38.292Z,19.53
2019-04-26T06:12:23.145Z,18.53
2019-04-26T06:15:23.281Z,20.13
2019-04-26T06:21:11.425Z,17.70
2019-04-26T06:23:52.905Z,18.63
2019-04-26T06:26:36.024Z,19.33
2019-04-26T06:29:16.248Z,18.03
2019-04-26T06:31:56.689Z,17.93
2019-04-26T06:34:37.257Z,21.53
2019-04-26T06:37:36.892Z,18.40
2019-04-26T06:40:13.154Z,19.80
2019-04-26T06:42:47.963Z,15.33
2019-04-26T06:45:46.233Z,17.40
2019-04-26T06:48:46.305Z,14.40
2019-04-26T06:55:12.391Z,15.33
2019-04-26T06:58:09.293Z,15.17
2019-04-26T07:04:38.012Z,17.90
2019-04-26T07:11:01.317Z,13.93
2019-04-26T07:14:07.909Z,13.67
2019-04-26T07:20:23.565Z,13.10
2019-04-26T07:23:28.429Z,16.27
2019-04-26T07:26:22.528Z,16.07
2019-04-26T07:29:09.876Z,11.37
2019-04-26T07:31:59.568Z,9.43
2019-04-26T07:34:50.483Z,9.93
2019-04-26T07:37:43.363Z,9.47
2019-04-26T07:40:31.585Z,8.17
2019-04-26T07:43:39.534Z,7.80
2019-04-26T07:50:14.176Z,7.30
2019-04-26T07:52:54.673Z,7.47
2019-04-26T07:55:44.526Z,8.03
2019-04-26T07:58:49.979Z,7.50
2019-04-26T08:01:50.234Z,8.73
2019-04-26T08:04:26.269Z,11.10
2019-04-26T08:07:04.867Z,10.37
2019-04-26T08:09:36.512Z,7.10
2019-04-26T08:12:07.968Z,7.93
2019-04-26T08:14:53.462Z,5.83
2019-04-26T08:17:46.398Z,7.87
2019-04-26T08:20:19.639Z,6.07
2019-04-26T08:22:52.305Z,7.50
2019-04-26T08:25:23.919Z,11.27
2019-04-26T08:27:55.512Z,7.70
2019-04-26T08:30:26.740Z,4.27
2019-04-26T08:32:57.709Z,9.63
2019-04-26T08:38:57.518Z,5.93
2019-04-26T08:41:26.436Z,4.60
2019-04-26T08:44:06.872Z,5.20
2019-04-26T08:46:47.320Z,2.83
2019-04-26T08:49:28.374Z,5.27
2019-04-26T08:51:59.759Z,7.60
2019-04-26T08:54:32.683Z,5.30
2019-04-26T08:57:07.481Z,9.73
2019-04-26T08:59:39.097Z,7.63
2019-04-26T09:02:24.114Z,10.03
2019-04-26T09:05:13.545Z,7.63
2019-04-26T09:07:45.137Z,6.00
2019-04-26T09:13:45.474Z,7.33
2019-04-26T09:16:16.218Z,7.87
2019-04-26T09:18:52.529Z,10.17
2019-04-26T09:21:19.050Z,10.07
2019-04-26T09:23:55.825Z,12.10
2019-04-26T09:26:35.340Z,7.77
2019-04-26T09:29:05.597Z,7.13
2019-04-26T09:31:44.959Z,8.90
2019-04-26T09:34:15.971Z,8.20
2019-04-26T09:36:51.509Z,8.63
2019-04-26T09:39:21.115Z,8.13
2019-04-26T09:45:19.792Z,10.57
2019-04-26T09:47:49.952Z,11.87
2019-04-26T09:50:31.754Z,9.07
2019-04-26T09:53:00.330Z,11.30
2019-04-26T09:55:35.507Z,11.67
2019-04-26T09:58:00.533Z,7.50
2019-04-26T10:00:30.646Z,7.37
2019-04-26T10:03:00.913Z,8.63
2019-04-26T10:05:29.524Z,6.33
2019-04-26T10:07:58.111Z,6.33
2019-04-26T10:14:02.540Z,5.83
2019-04-26T10:16:33.501Z,6.60
2019-04-26T10:22:44.031Z,7.53
2019-04-26T10:25:16.480Z,10.87
2019-04-26T10:27:44.006Z,5.00
2019-04-26T10:30:14.571Z,5.53
2019-04-26T10:36:11.800Z,6.93
2019-04-26T10:38:40.503Z,6.90
2019-04-26T10:41:09.829Z,4.77
2019-04-26T10:43:38.371Z,8.60
2019-04-26T10:46:07.786Z,4.23
2019-04-26T10:48:36.362Z,7.40
2019-04-26T10:51:07.405Z,7.13
2019-04-26T10:53:42.870Z,8.67
2019-04-26T10:56:13.084Z,3.93
2019-04-26T10:58:43.351Z,8.43
2019-04-26T11:01:15.282Z,4.20
2019-04-26T11:03:43.960Z,6.37
2019-04-26T11:06:12.598Z,6.77
2019-04-26T11:08:41.226Z,6.37
2019-04-26T11:11:10.011Z,4.43
2019-04-26T11:13:38.547Z,5.57
2019-04-26T11:16:08.960Z,5.97
2019-04-26T11:18:37.704Z,7.27
2019-04-26T11:21:06.230Z,7.03
2019-04-26T11:23:34.798Z,4.10
2019-04-26T11:26:03.412Z,5.27
2019-04-26T11:28:31.904Z,3.90
2019-04-26T11:31:00.359Z,4.13
2019-04-26T11:33:28.865Z,4.47
2019-04-26T11:35:57.362Z,13.97
2019-04-26T11:38:26.961Z,5.90
2019-04-26T11:41:05.795Z,5.97
2019-04-26T11:43:26.278Z,4.30
2019-04-26T11:46:04.079Z,4.73
2019-04-26T11:48:25.482Z,5.63
2019-04-26T11:50:55.243Z,4.30
2019-04-26T11:53:23.922Z,6.27
2019-04-26T11:55:52.439Z,5.10
2019-04-26T12:01:49.619Z,4.13
2019-04-26T12:04:25.329Z,6.23
2019-04-26T12:06:55.593Z,4.73
2019-04-26T12:09:34.770Z,5.97
2019-04-26T12:12:05.175Z,3.87
2019-04-26T12:14:34.411Z,5.03
2019-04-26T12:17:26.849Z,8.57
2019-04-26T12:25:48.108Z,3.80
2019-04-26T12:28:36.365Z,6.00
2019-04-26T12:31:15.997Z,5.50
2019-04-26T12:33:56.717Z,7.93
2019-04-26T12:36:37.745Z,5.73
2019-04-26T12:39:11.041Z,6.77
2019-04-26T12:41:40.849Z,6.37
2019-04-26T12:47:55.167Z,6.80
2019-04-26T12:50:23.625Z,5.00
2019-04-26T12:56:20.536Z,5.67
2019-04-26T12:58:50.049Z,6.83
2019-04-26T13:01:19.330Z,8.70
2019-04-26T13:03:49.557Z,7.67
2019-04-26T13:06:18.215Z,4.97
2019-04-26T13:12:16.738Z,7.63
2019-04-26T13:14:55.938Z,5.57
2019-04-26T13:17:35.583Z,6.93
2019-04-26T13:23:31.334Z,8.93
2019-04-26T13:26:01.588Z,9.43
2019-04-26T13:28:30.429Z,6.60
2019-04-26T13:31:02.045Z,5.73
2019-04-26T13:33:29.386Z,6.47
2019-04-26T13:36:04.931Z,7.00
2019-04-26T13:38:28.102Z,6.53
2019-04-26T13:40:59.559Z,6.50
2019-04-26T13:43:28.563Z,6.90
2019-04-26T13:46:01.726Z,6.90
2019-04-26T13:48:34.806Z,7.57
2019-04-26T13:51:05.833Z,6.63
2019-04-26T13:53:34.594Z,8.23
2019-04-26T13:59:20.321Z,8.63
2019-04-26T14:01:48.776Z,8.03
2019-04-26T14:04:17.711Z,7.47
2019-04-26T14:06:46.230Z,11.40
2019-04-26T14:09:15.255Z,8.73
2019-04-26T14:11:43.894Z,10.33
2019-04-26T14:14:12.495Z,10.90
2019-04-26T14:16:41.112Z,8.33
2019-04-26T14:19:14.888Z,8.30
2019-04-26T14:21:40.012Z,8.10
2019-04-26T14:24:13.047Z,8.37
2019-04-26T14:26:43.695Z,8.00
2019-04-26T14:29:12.214Z,14.07
2019-04-26T14:31:40.734Z,10.43
2019-04-26T14:34:11.939Z,8.77
2019-04-26T14:40:16.627Z,11.87
2019-04-26T14:42:45.853Z,13.43
2019-04-26T14:45:08.865Z,12.77
2019-04-26T14:47:47.181Z,14.07
2019-04-26T14:50:14.275Z,13.57
2019-04-26T14:52:38.364Z,13.17
2019-04-26T14:55:07.552Z,10.80
2019-04-26T14:57:36.132Z,13.70
2019-04-26T15:00:06.229Z,11.07
2019-04-26T15:02:55.781Z,11.60
2019-04-26T15:05:33.329Z,10.40
2019-04-26T15:08:05.434Z,10.13
2019-04-26T15:10:43.949Z,11.57
2019-04-26T15:13:17.032Z,12.27
2019-04-26T15:15:37.197Z,8.77
2019-04-26T15:18:06.458Z,9.00
2019-04-26T15:20:35.438Z,14.60
2019-04-26T15:23:03.981Z,9.17
2019-04-26T15:25:33.585Z,9.70
2019-04-26T15:28:02.537Z,12.50
2019-04-26T15:30:34.284Z,9.63
2019-04-26T15:33:03.177Z,7.77
2019-04-26T15:35:32.696Z,9.60
2019-04-26T15:38:02.466Z,7.70
2019-04-26T15:40:42.508Z,15.90
2019-04-26T15:43:14.755Z,8.47
2019-04-26T15:46:02.317Z,6.73
2019-04-26T15:48:32.507Z,6.17
2019-04-26T15:51:02.611Z,7.30
2019-04-26T15:53:33.060Z,8.10
2019-04-26T15:56:02.547Z,6.27
2019-04-26T15:58:31.158Z,6.50
2019-04-26T16:01:00.043Z,4.83
2019-04-26T16:03:28.614Z,5.27
2019-04-26T16:05:59.153Z,5.23
2019-04-26T16:08:27.400Z,4.33
2019-04-26T16:10:55.869Z,4.73
2019-04-26T16:13:24.361Z,4.30
2019-04-26T16:15:53.078Z,5.17
2019-04-26T16:18:22.365Z,4.30
2019-04-26T16:20:51.109Z,6.60
2019-04-26T16:23:19.724Z,5.00
2019-04-26T16:25:48.179Z,5.23
2019-04-26T16:28:38.468Z,8.17
2019-04-26T16:31:23.490Z,5.30
2019-04-26T16:33:53.706Z,6.43
2019-04-26T16:36:24.012Z,4.47
2019-04-26T16:38:54.797Z,5.03
2019-04-26T16:41:27.149Z,3.73
2019-04-26T16:43:54.453Z,3.10
2019-04-26T16:46:24.835Z,5.77
2019-04-26T16:48:56.662Z,4.60
2019-04-26T16:51:23.835Z,3.37
2019-04-26T16:56:26.632Z,4.97
2019-04-26T16:58:54.860Z,2.30
2019-04-26T17:01:23.593Z,5.30
2019-04-26T17:03:53.465Z,3.13
2019-04-26T17:06:23.255Z,5.83
2019-04-26T17:08:59.642Z,3.40
2019-04-26T17:09:38.414Z,4.40
2019-04-26T17:11:22.993Z,4.80
2019-04-26T17:13:56.429Z,4.47
2019-04-26T17:16:22.517Z,9.27
2019-04-26T17:18:55.675Z,3.63
2019-04-26T17:21:25.589Z,5.00
2019-04-26T17:23:56.131Z,5.20
2019-04-26T17:26:29.319Z,4.27
2019-04-26T17:28:56.506Z,5.50
2019-04-26T17:31:25.007Z,4.80
2019-04-26T17:33:53.494Z,9.67
2019-04-26T17:36:22.150Z,5.77
2019-04-26T17:38:50.685Z,5.23
2019-04-26T17:41:19.229Z,5.57
2019-04-26T17:43:52.089Z,7.43
2019-04-26T17:46:18.479Z,8.47
2019-04-26T17:48:49.227Z,8.53
2019-04-26T17:51:20.714Z,10.60
2019-04-26T17:53:49.537Z,11.07
2019-04-26T17:56:18.816Z,9.60
2019-04-26T17:58:52.433Z,11.27
2019-04-26T18:01:39.833Z,12.47
2019-04-26T18:03:52.186Z,10.23
2019-04-26T18:06:29.121Z,9.83
2019-04-26T18:08:54.234Z,11.63
2019-04-26T18:11:20.079Z,9.50
2019-04-26T18:13:51.248Z,11.13
2019-04-26T18:16:22.369Z,11.20
2019-04-26T18:18:54.290Z,13.47
2019-04-26T18:21:33.443Z,12.87
2019-04-26T18:24:02.872Z,14.43
2019-04-26T18:26:32.774Z,13.90
2019-04-26T18:29:01.522Z,13.13
2019-04-26T18:31:30.218Z,11.37
2019-04-26T18:34:00.634Z,12.87
2019-04-26T18:36:31.915Z,12.40
2019-04-26T18:38:59.377Z,13.53
2019-04-26T18:41:29.055Z,11.50
2019-04-26T18:43:59.930Z,12.90
2019-04-26T18:46:35.684Z,14.07
2019-04-26T18:49:04.453Z,12.80
2019-04-26T18:51:33.459Z,14.50
2019-04-26T18:54:05.057Z,14.77
2019-04-26T18:56:39.603Z,17.67
2019-04-26T18:59:07.234Z,19.57
2019-04-26T19:01:40.827Z,17.17
2019-04-26T19:04:12.509Z,19.60
2019-04-26T19:06:38.007Z,18.70
2019-04-26T19:09:08.627Z,22.43
2019-04-26T19:11:37.226Z,19.43
2019-04-26T19:14:23.952Z,19.50
2019-04-26T19:17:06.361Z,21.10
2019-04-26T19:23:16.127Z,22.00
2019-04-26T19:25:44.693Z,27.27
2019-04-26T19:28:14.597Z,23.17
2019-04-26T19:30:47.301Z,23.37
2019-04-26T19:33:16.883Z,24.83
2019-04-26T19:39:12.992Z,28.83
2019-04-26T19:41:42.050Z,31.20
2019-04-26T19:44:14.631Z,31.57
2019-04-26T19:46:45.703Z,30.97
2019-04-26T19:49:25.807Z,31.67
2019-04-26T19:52:05.545Z,35.57
2019-04-26T19:54:41.862Z,33.83
2019-04-26T19:57:18.024Z,35.30
2019-04-26T19:59:46.510Z,35.67
2019-04-26T20:02:15.190Z,34.70
2019-04-26T20:04:43.750Z,37.73
2019-04-26T20:07:33.165Z,38.37
2019-04-26T20:10:43.250Z,36.47
2019-04-26T20:13:37.253Z,40.53
2019-04-26T20:16:26.025Z,39.00
2019-04-26T20:19:17.734Z,40.03
2019-04-26T20:22:04.087Z,42.27
2019-04-26T20:24:53.895Z,41.70
2019-04-26T20:27:41.454Z,45.97
2019-04-26T20:30:48.443Z,42.90
2019-04-26T20:33:36.307Z,46.00
2019-04-26T20:36:24.092Z,46.50
2019-04-26T20:39:12.554Z,45.57
2019-04-26T20:42:03.961Z,45.20
2019-04-26T20:44:53.465Z,49.20
2019-04-26T20:47:41.653Z,47.77
2019-04-26T20:50:35.201Z,48.03
2019-04-26T20:53:13.027Z,50.50
2019-04-26T20:55:54.106Z,52.93
2019-04-26T20:58:37.542Z,57.17
2019-04-26T21:01:17.862Z,55.53
2019-04-26T21:03:58.972Z,57.17
2019-04-26T21:06:40.073Z,57.83
2019-04-26T21:09:22.017Z,61.47
2019-04-26T21:12:02.718Z,66.23
2019-04-26T21:14:45.548Z,64.77
2019-04-26T21:17:27.688Z,64.63
2019-04-26T21:20:08.228Z,70.10
2019-04-26T21:22:48.933Z,70.40
2019-04-26T21:25:35.430Z,65.37
2019-04-26T21:28:22.081Z,70.10
2019-04-26T21:31:07.475Z,68.90
2019-04-26T21:33:54.623Z,77.50
2019-04-26T21:36:40.967Z,64.93
2019-04-26T21:39:46.331Z,62.97
2019-04-26T21:42:25.839Z,59.37
2019-04-26T21:45:06.374Z,61.10
2019-04-26T21:47:47.380Z,64.33
2019-04-26T21:50:29.189Z,63.70
2019-04-26T21:53:10.751Z,62.67
2019-04-26T21:55:51.828Z,66.93
2019-04-26T21:58:33.734Z,66.20
2019-04-26T22:01:19.001Z,63.83
2019-04-26T22:03:58.518Z,62.23
2019-04-26T22:06:39.529Z,68.93
2019-04-26T22:09:39.780Z,69.67
2019-04-26T22:12:21.211Z,64.50
2019-04-26T22:17:55.013Z,70.97
2019-04-26T22:23:56.697Z,84.50
2019-04-26T22:29:43.632Z,84.53
2019-04-26T22:35:25.904Z,112.00
2019-04-26T22:38:17.524Z,106.90
2019-04-26T22:41:03.313Z,107.53
2019-04-26T22:44:10.287Z,102.20
2019-04-26T22:49:56.925Z,112.27
2019-04-26T22:52:51.364Z,103.73
2019-04-26T22:55:35.075Z,117.87
2019-04-26T22:58:25.581Z,104.17
2019-04-26T23:01:12.529Z,106.70
2019-04-26T23:04:00.358Z,132.13
2019-04-26T23:06:48.254Z,99.07
2019-04-26T23:09:30.976Z,91.00
2019-04-26T23:12:16.377Z,94.47
2019-04-26T23:15:00.221Z,117.77
2019-04-26T23:18:03.745Z,113.00
2019-04-26T23:21:03.443Z,128.77
2019-04-26T23:23:44.370Z,115.67
2019-04-26T23:26:25.212Z,134.10
2019-04-26T23:29:08.550Z,93.60
2019-04-26T23:31:48.564Z,88.13
2019-04-26T23:34:29.540Z,94.93
2019-04-26T23:37:10.207Z,108.47
2019-04-26T23:39:51.490Z,107.10
2019-04-26T23:42:33.090Z,91.33
2019-04-26T23:45:14.370Z,126.13
2019-04-26T23:47:55.432Z,117.90
2019-04-26T23:50:35.995Z,103.83
2019-04-26T23:53:20.164Z,172.93
2019-04-26T23:55:59.199Z,125.07
2019-04-26T23:58:40.228Z,119.40
